createdAt,value
2018-12-17T00:01:26.252Z,5.83
2018-12-17T00:04:24.458Z,6.20
2018-12-17T00:07:22.208Z,7.07
2018-12-17T00:10:20.170Z,5.87
2018-12-17T00:13:17.238Z,5.83
2018-12-17T00:16:15.008Z,5.57
2018-12-17T00:19:12.152Z,6.60
2018-12-17T00:22:10.556Z,5.37
2018-12-17T00:25:08.536Z,6.27
2018-12-17T00:28:08.253Z,7.10
2018-12-17T00:31:05.401Z,6.07
2018-12-17T00:34:03.728Z,5.00
2018-12-17T00:37:01.117Z,5.27
2018-12-17T00:39:58.660Z,5.40
2018-12-17T00:42:57.160Z,4.70
2018-12-17T00:45:55.121Z,5.33
2018-12-17T00:48:52.829Z,5.67
2018-12-17T00:51:50.992Z,5.47
2018-12-17T00:54:49.173Z,5.83
2018-12-17T00:57:47.157Z,6.57
2018-12-17T01:00:44.509Z,6.23
2018-12-17T01:03:43.115Z,4.80
2018-12-17T01:06:41.939Z,5.20
2018-12-17T01:09:40.539Z,4.53
2018-12-17T01:12:37.691Z,6.13
2018-12-17T01:15:35.369Z,4.70
2018-12-17T01:18:33.457Z,5.13
2018-12-17T01:21:30.829Z,5.43
2018-12-17T01:24:28.581Z,5.00
2018-12-17T01:27:26.977Z,5.10
2018-12-17T01:30:25.987Z,5.10
2018-12-17T01:33:24.721Z,5.70
2018-12-17T01:36:22.241Z,4.83
2018-12-17T01:39:19.842Z,4.90
2018-12-17T01:42:16.893Z,4.73
2018-12-17T01:45:15.589Z,5.57
2018-12-17T01:48:13.379Z,5.53
2018-12-17T01:51:10.725Z,6.77
2018-12-17T01:54:09.829Z,5.30
2018-12-17T01:57:09.393Z,4.50
2018-12-17T02:00:07.673Z,4.97
2018-12-17T02:03:05.266Z,4.77
2018-12-17T02:06:04.577Z,4.33
2018-12-17T02:09:03.167Z,4.70
2018-12-17T02:12:00.963Z,5.03
2018-12-17T02:14:58.492Z,5.17
2018-12-17T02:17:55.895Z,5.27
2018-12-17T02:20:54.407Z,5.73
2018-12-17T02:23:53.408Z,4.97
2018-12-17T02:26:50.875Z,5.37
2018-12-17T02:29:48.523Z,4.67
2018-12-17T02:32:46.312Z,4.60
2018-12-17T02:35:43.362Z,5.63
2018-12-17T02:38:42.475Z,4.37
2018-12-17T02:41:41.373Z,5.10
2018-12-17T02:44:38.751Z,4.97
2018-12-17T02:47:36.859Z,5.43
2018-12-17T02:50:44.957Z,4.53
2018-12-17T02:53:43.020Z,4.60
2018-12-17T02:56:42.467Z,4.77
2018-12-17T02:59:40.881Z,5.60
2018-12-17T03:02:38.249Z,5.30
2018-12-17T03:05:36.947Z,4.37
2018-12-17T03:08:35.362Z,5.03
2018-12-17T03:11:33.867Z,4.77
2018-12-17T03:14:32.092Z,4.57
2018-12-17T03:17:29.584Z,4.53
2018-12-17T03:20:27.769Z,5.10
2018-12-17T03:23:25.473Z,5.13
2018-12-17T03:26:23.234Z,5.20
2018-12-17T03:29:22.354Z,4.57
2018-12-17T03:32:19.810Z,4.13
2018-12-17T03:35:17.164Z,4.77
2018-12-17T03:38:15.445Z,4.73
2018-12-17T03:41:14.263Z,4.63
2018-12-17T03:44:12.034Z,5.13
2018-12-17T03:47:10.035Z,4.63
2018-12-17T03:50:08.705Z,4.80
2018-12-17T03:53:07.765Z,4.30
2018-12-17T03:56:06.756Z,4.40
2018-12-17T03:59:05.278Z,4.33
2018-12-17T04:02:03.399Z,5.60
2018-12-17T04:05:01.261Z,4.33
2018-12-17T04:08:00.385Z,4.60
2018-12-17T04:10:59.291Z,4.50
2018-12-17T04:13:57.479Z,4.87
2018-12-17T04:16:55.583Z,4.20
2018-12-17T04:19:54.402Z,4.47
2018-12-17T04:22:53.213Z,4.83
2018-12-17T04:25:51.803Z,4.20
2018-12-17T04:28:49.888Z,4.13
2018-12-17T04:31:47.569Z,4.30
2018-12-17T04:34:46.475Z,4.20
2018-12-17T04:37:44.998Z,4.03
2018-12-17T04:40:42.155Z,4.13
2018-12-17T04:43:41.045Z,4.17
2018-12-17T04:46:40.488Z,4.80
2018-12-17T04:49:38.050Z,4.10
2018-12-17T04:52:35.418Z,3.87
2018-12-17T04:55:34.011Z,3.77
2018-12-17T04:58:31.994Z,3.43
2018-12-17T05:01:30.836Z,3.13
2018-12-17T05:04:28.374Z,3.77
2018-12-17T05:07:26.352Z,3.57
2018-12-17T05:10:25.812Z,5.10
2018-12-17T05:13:24.942Z,4.57
2018-12-17T05:16:23.550Z,4.10
2018-12-17T05:19:20.992Z,4.60
2018-12-17T05:22:18.210Z,3.70
2018-12-17T05:25:15.920Z,4.10
2018-12-17T05:28:13.263Z,4.57
2018-12-17T05:31:11.586Z,3.40
2018-12-17T05:34:10.878Z,4.03
2018-12-17T05:37:09.292Z,3.83
2018-12-17T05:40:06.764Z,3.67
2018-12-17T05:43:04.240Z,3.50
2018-12-17T05:46:02.414Z,4.37
2018-12-17T05:49:00.628Z,3.13
2018-12-17T05:51:59.444Z,3.77
2018-12-17T05:54:58.343Z,3.20
2018-12-17T05:57:56.112Z,3.27
2018-12-17T06:00:53.170Z,3.30
2018-12-17T06:03:50.687Z,3.43
2018-12-17T06:06:48.382Z,3.37
2018-12-17T06:09:45.886Z,3.60
2018-12-17T06:12:44.054Z,3.20
2018-12-17T06:15:43.232Z,2.83
2018-12-17T06:18:40.812Z,3.20
2018-12-17T06:21:38.600Z,2.67
2018-12-17T06:24:36.906Z,3.30
2018-12-17T06:27:36.733Z,2.60
2018-12-17T06:30:32.877Z,2.30
2018-12-17T06:33:31.553Z,2.57
2018-12-17T06:36:29.301Z,2.33
2018-12-17T06:39:27.229Z,2.10
2018-12-17T06:42:24.447Z,2.10
2018-12-17T06:45:21.714Z,2.40
2018-12-17T06:48:20.841Z,2.30
2018-12-17T06:51:17.591Z,2.23
2018-12-17T06:54:15.886Z,2.03
2018-12-17T06:57:14.980Z,1.90
2018-12-17T07:00:12.192Z,1.90
2018-12-17T07:03:09.495Z,1.87
2018-12-17T07:06:08.310Z,1.70
2018-12-17T07:09:06.311Z,1.70
2018-12-17T07:12:04.668Z,1.80
2018-12-17T07:15:02.650Z,1.70
2018-12-17T07:18:00.427Z,1.50
2018-12-17T07:20:59.362Z,1.40
2018-12-17T07:23:58.914Z,1.77
2018-12-17T07:26:57.197Z,1.70
2018-12-17T07:29:54.223Z,1.50
2018-12-17T07:32:52.293Z,1.60
2018-12-17T07:35:50.527Z,1.60
2018-12-17T07:38:47.542Z,1.40
2018-12-17T07:41:45.519Z,1.70
2018-12-17T07:44:42.905Z,1.33
2018-12-17T07:47:42.335Z,1.50
2018-12-17T07:50:40.583Z,1.40
2018-12-17T07:53:38.695Z,1.47
2018-12-17T07:56:37.302Z,1.20
2018-12-17T07:59:35.073Z,1.30
2018-12-17T08:02:32.475Z,1.47
2018-12-17T08:05:31.228Z,1.40
2018-12-17T08:08:35.142Z,1.40
2018-12-17T08:11:28.261Z,1.30
2018-12-17T08:14:25.431Z,0.90
2018-12-17T08:17:24.645Z,1.07
2018-12-17T08:20:22.192Z,1.43
2018-12-17T08:23:20.036Z,1.67
2018-12-17T08:26:17.111Z,1.13
2018-12-17T08:29:15.716Z,1.90
2018-12-17T08:32:13.815Z,1.30
2018-12-17T08:35:10.650Z,1.27
2018-12-17T08:38:09.283Z,1.10
2018-12-17T08:41:06.844Z,1.20
2018-12-17T08:44:05.110Z,1.10
2018-12-17T08:47:02.345Z,1.27
2018-12-17T08:49:59.732Z,2.70
2018-12-17T08:52:57.719Z,1.10
2018-12-17T08:55:55.163Z,1.63
2018-12-17T08:58:52.602Z,0.93
2018-12-17T09:01:51.622Z,1.00
2018-12-17T09:04:49.412Z,1.17
2018-12-17T09:07:47.071Z,1.40
2018-12-17T09:10:48.060Z,1.00
2018-12-17T09:13:45.653Z,0.97
2018-12-17T09:16:43.195Z,0.93
2018-12-17T09:19:42.013Z,0.93
2018-12-17T09:22:39.364Z,1.40
2018-12-17T09:25:37.261Z,1.07
2018-12-17T09:28:34.527Z,1.13
2018-12-17T09:31:32.264Z,0.70
2018-12-17T09:34:31.237Z,1.00
2018-12-17T09:37:29.452Z,0.83
2018-12-17T09:40:28.084Z,0.70
2018-12-17T09:43:26.500Z,0.90
2018-12-17T09:46:24.046Z,0.73
2018-12-17T09:49:21.197Z,0.80
2018-12-17T09:52:19.077Z,0.80
2018-12-17T09:55:17.192Z,1.10
2018-12-17T09:58:14.713Z,0.70
2018-12-17T10:01:13.542Z,0.70
2018-12-17T10:04:12.555Z,0.57
2018-12-17T10:07:08.947Z,0.70
2018-12-17T10:10:07.150Z,1.70
2018-12-17T10:13:04.724Z,0.80
2018-12-17T10:16:02.296Z,0.50
2018-12-17T10:18:59.112Z,0.70
2018-12-17T10:21:56.684Z,0.60
2018-12-17T10:24:53.615Z,0.60
2018-12-17T10:27:51.802Z,0.70
2018-12-17T10:30:49.447Z,0.70
2018-12-17T10:33:48.059Z,0.57
2018-12-17T10:36:45.462Z,0.63
2018-12-17T10:39:43.727Z,1.63
2018-12-17T10:42:42.036Z,0.53
2018-12-17T10:45:39.909Z,0.70
2018-12-17T10:48:37.398Z,1.27
2018-12-17T10:51:36.423Z,0.60
2018-12-17T10:54:34.882Z,2.77
2018-12-17T10:57:32.057Z,0.73
2018-12-17T11:00:39.357Z,0.73
2018-12-17T11:03:36.764Z,1.50
2018-12-17T11:06:34.659Z,0.90
2018-12-17T11:09:31.801Z,0.67
2018-12-17T11:12:29.790Z,1.33
2018-12-17T11:15:28.892Z,0.53
2018-12-17T11:18:26.288Z,0.63
2018-12-17T11:21:24.314Z,0.90
2018-12-17T11:24:22.416Z,0.50
2018-12-17T11:27:21.874Z,0.50
2018-12-17T11:30:18.833Z,0.57
2018-12-17T11:33:16.912Z,0.43
2018-12-17T11:36:15.193Z,0.53
2018-12-17T11:39:15.242Z,0.57
2018-12-17T11:42:12.712Z,1.70
2018-12-17T11:45:10.980Z,0.60
2018-12-17T11:48:09.930Z,0.40
2018-12-17T11:51:08.747Z,1.40
2018-12-17T11:54:06.308Z,0.50
2018-12-17T11:57:18.620Z,0.40
2018-12-17T12:00:16.896Z,0.30
2018-12-17T12:03:14.170Z,0.40
2018-12-17T12:06:14.203Z,0.47
2018-12-17T12:09:11.358Z,0.30
2018-12-17T12:12:08.487Z,0.57
2018-12-17T12:15:05.858Z,0.50
2018-12-17T12:18:02.836Z,0.47
2018-12-17T12:21:02.128Z,0.47
2018-12-17T12:23:59.573Z,0.47
2018-12-17T12:26:56.928Z,0.57
2018-12-17T12:29:55.658Z,0.53
2018-12-17T12:32:54.055Z,0.57
2018-12-17T12:35:51.825Z,0.83
2018-12-17T12:38:49.317Z,0.63
2018-12-17T12:41:48.380Z,0.50
2018-12-17T12:44:47.017Z,0.30
2018-12-17T12:47:44.314Z,0.50
2018-12-17T12:50:42.157Z,0.30
2018-12-17T12:53:39.623Z,0.60
2018-12-17T12:56:37.082Z,0.60
2018-12-17T12:59:34.535Z,0.50
2018-12-17T13:02:33.044Z,0.30
2018-12-17T13:05:31.416Z,0.40
2018-12-17T13:08:30.327Z,0.40
2018-12-17T13:11:28.412Z,0.43
2018-12-17T13:14:26.083Z,0.37
2018-12-17T13:17:43.022Z,0.50
2018-12-17T13:20:41.695Z,0.60
2018-12-17T13:23:39.173Z,0.50
2018-12-17T13:26:36.593Z,0.47
2018-12-17T13:29:35.113Z,0.40
2018-12-17T13:32:33.721Z,0.37
2018-12-17T13:35:32.413Z,0.30
2018-12-17T13:38:31.021Z,0.63
2018-12-17T13:41:28.909Z,0.50
2018-12-17T13:44:26.181Z,0.40
2018-12-17T13:47:23.740Z,0.37
2018-12-17T13:50:30.202Z,0.57
2018-12-17T13:53:32.746Z,0.33
2018-12-17T13:56:31.817Z,0.27
2018-12-17T13:59:28.791Z,0.30
2018-12-17T14:02:26.902Z,0.40
2018-12-17T14:05:24.878Z,0.57
2018-12-17T14:08:22.446Z,0.57
2018-12-17T14:11:20.413Z,0.57
2018-12-17T14:14:18.391Z,0.40
2018-12-17T14:17:22.147Z,0.33
2018-12-17T14:20:28.237Z,0.60
2018-12-17T14:23:27.054Z,1.17
2018-12-17T14:26:25.736Z,3.30
2018-12-17T14:29:24.208Z,0.63
2018-12-17T14:32:22.872Z,0.50
2018-12-17T14:35:20.997Z,0.73
2018-12-17T14:38:18.628Z,0.57
2018-12-17T14:41:16.816Z,0.57
2018-12-17T14:44:20.485Z,0.40
2018-12-17T14:47:19.050Z,0.30
2018-12-17T14:50:17.269Z,0.40
2018-12-17T14:53:16.419Z,0.47
2018-12-17T14:56:14.865Z,0.50
2018-12-17T14:59:12.768Z,0.87
2018-12-17T15:02:12.352Z,0.30
2018-12-17T15:05:11.318Z,0.40
2018-12-17T15:08:09.531Z,0.53
2018-12-17T15:11:06.315Z,0.60
2018-12-17T15:14:07.552Z,0.53
2018-12-17T15:17:04.488Z,0.40
2018-12-17T15:20:01.847Z,0.30
2018-12-17T15:23:01.073Z,0.43
2018-12-17T15:25:59.070Z,0.50
2018-12-17T15:28:56.943Z,0.53
2018-12-17T15:31:55.025Z,0.30
2018-12-17T15:34:53.957Z,0.40
2018-12-17T15:37:52.873Z,0.60
2018-12-17T15:40:50.541Z,2.17
2018-12-17T15:43:49.368Z,0.60
2018-12-17T15:46:49.793Z,0.33
2018-12-17T15:49:47.466Z,0.33
2018-12-17T15:52:45.060Z,0.50
2018-12-17T15:55:42.961Z,0.30
2018-12-17T15:58:41.231Z,0.53
2018-12-17T16:01:40.270Z,0.30
2018-12-17T16:04:37.525Z,0.30
2018-12-17T16:07:36.752Z,0.43
2018-12-17T16:10:35.984Z,1.07
2018-12-17T16:13:33.465Z,0.30
2018-12-17T16:16:30.432Z,0.37
2018-12-17T16:19:29.605Z,1.23
2018-12-17T16:22:28.330Z,0.40
2018-12-17T16:25:25.560Z,0.57
2018-12-17T16:28:22.705Z,0.60
2018-12-17T16:31:20.608Z,0.43
2018-12-17T16:34:19.203Z,0.40
2018-12-17T16:37:17.489Z,0.70
2018-12-17T16:40:15.162Z,0.50
2018-12-17T16:43:13.442Z,0.37
2018-12-17T16:46:11.350Z,0.40
2018-12-17T16:49:08.914Z,2.80
2018-12-17T16:52:06.664Z,0.40
2018-12-17T16:55:03.905Z,0.37
2018-12-17T16:58:01.803Z,0.40
2018-12-17T17:00:59.992Z,0.80
2018-12-17T17:03:57.220Z,0.47
2018-12-17T17:06:55.317Z,0.50
2018-12-17T17:09:53.304Z,0.23
2018-12-17T17:12:51.371Z,0.37
2018-12-17T17:15:48.841Z,0.57
2018-12-17T17:18:47.749Z,0.50
2018-12-17T17:21:45.185Z,0.40
2018-12-17T17:24:43.081Z,0.40
2018-12-17T17:27:40.435Z,0.50
2018-12-17T17:30:38.123Z,0.60
2018-12-17T17:33:37.667Z,0.33
2018-12-17T17:36:36.265Z,0.37
2018-12-17T17:39:34.248Z,0.47
2018-12-17T17:42:32.100Z,0.40
2018-12-17T17:45:30.638Z,0.57
2018-12-17T17:48:29.431Z,0.83
2018-12-17T17:51:27.289Z,0.73
2018-12-17T17:54:24.977Z,0.43
2018-12-17T17:57:23.373Z,0.60
2018-12-17T18:00:22.743Z,0.40
2018-12-17T18:03:19.891Z,0.30
2018-12-17T18:06:17.571Z,0.90
2018-12-17T18:09:15.797Z,0.50
2018-12-17T18:12:13.290Z,0.70
2018-12-17T18:15:10.421Z,0.53
2018-12-17T18:18:10.283Z,0.47
2018-12-17T18:21:08.801Z,0.30
2018-12-17T18:24:06.487Z,1.10
2018-12-17T18:27:04.968Z,0.80
2018-12-17T18:30:02.960Z,1.07
2018-12-17T18:33:00.814Z,0.43
2018-12-17T18:35:58.603Z,0.77
2018-12-17T18:38:55.811Z,0.60
2018-12-17T18:41:54.127Z,0.70
2018-12-17T18:44:51.145Z,0.70
2018-12-17T18:47:48.837Z,0.70
2018-12-17T18:50:46.189Z,0.70
2018-12-17T18:53:43.752Z,0.60
2018-12-17T18:56:41.314Z,0.80
2018-12-17T18:59:39.427Z,1.43
2018-12-17T19:02:37.185Z,1.20
2018-12-17T19:05:34.957Z,1.40
2018-12-17T19:08:32.817Z,0.80
2018-12-17T19:11:31.251Z,0.60
2018-12-17T19:14:29.020Z,2.13
2018-12-17T19:17:26.761Z,0.87
2018-12-17T19:20:25.907Z,1.33
2018-12-17T19:23:25.018Z,1.33
2018-12-17T19:26:21.990Z,2.83
2018-12-17T19:29:20.055Z,0.80
2018-12-17T19:32:18.962Z,1.27
2018-12-17T19:35:16.245Z,1.37
2018-12-17T19:38:13.890Z,1.03
2018-12-17T19:41:11.062Z,1.47
2018-12-17T19:44:07.959Z,1.73
2018-12-17T19:47:05.645Z,1.17
2018-12-17T19:50:04.127Z,1.23
2018-12-17T19:53:02.740Z,1.53
2018-12-17T19:56:00.928Z,1.10
2018-12-17T19:58:59.238Z,1.67
2018-12-17T20:01:57.930Z,2.53
2018-12-17T20:04:56.664Z,1.40
2018-12-17T20:07:55.478Z,1.60
2018-12-17T20:10:53.336Z,1.63
2018-12-17T20:13:51.744Z,1.37
2018-12-17T20:16:49.012Z,1.43
2018-12-17T20:19:47.010Z,2.37
2018-12-17T20:22:45.062Z,1.10
2018-12-17T20:25:42.405Z,1.30
2018-12-17T20:28:39.130Z,1.40
2018-12-17T20:31:37.317Z,1.87
2018-12-17T20:34:34.505Z,1.57
2018-12-17T20:37:31.330Z,1.90
2018-12-17T20:40:29.608Z,1.67
2018-12-17T20:43:25.963Z,1.57
2018-12-17T20:46:23.962Z,2.13
2018-12-17T20:49:21.348Z,1.40
2018-12-17T20:52:19.007Z,1.90
2018-12-17T20:55:15.671Z,2.67
2018-12-17T20:58:12.805Z,1.40
2018-12-17T21:01:11.275Z,2.10
2018-12-17T21:04:08.928Z,1.70
2018-12-17T21:07:06.734Z,1.47
2018-12-17T21:10:05.008Z,1.50
2018-12-17T21:13:02.781Z,2.20
2018-12-17T21:16:01.399Z,1.70
2018-12-17T21:18:59.173Z,1.40
2018-12-17T21:21:56.846Z,1.93
2018-12-17T21:24:54.201Z,2.03
2018-12-17T21:27:53.828Z,1.87
2018-12-17T21:30:52.874Z,2.33
2018-12-17T21:33:49.557Z,1.57
2018-12-17T21:36:46.625Z,2.03
2018-12-17T21:39:44.539Z,1.93
2018-12-17T21:42:43.212Z,1.93
2018-12-17T21:45:42.570Z,2.00
2018-12-17T21:48:39.839Z,1.60
2018-12-17T21:51:36.772Z,1.50
2018-12-17T21:54:34.302Z,1.83
2018-12-17T21:57:31.865Z,2.57
2018-12-17T22:00:30.470Z,2.37
2018-12-17T22:03:28.031Z,3.47
2018-12-17T22:06:26.732Z,2.07
2018-12-17T22:09:24.036Z,1.60
2018-12-17T22:12:23.016Z,2.53
2018-12-17T22:15:20.370Z,1.93
2018-12-17T22:18:17.596Z,1.80
2018-12-17T22:21:15.020Z,1.90
2018-12-17T22:24:12.923Z,2.07
2018-12-17T22:27:10.812Z,2.23
2018-12-17T22:30:07.978Z,1.53
2018-12-17T22:33:05.988Z,1.50
2018-12-17T22:36:04.776Z,2.57
2018-12-17T22:39:03.297Z,1.87
2018-12-17T22:42:00.322Z,1.60
2018-12-17T22:44:58.322Z,2.23
2018-12-17T22:47:56.403Z,1.97
2018-12-17T22:50:53.918Z,1.87
2018-12-17T22:53:52.043Z,1.87
2018-12-17T22:56:50.248Z,2.20
2018-12-17T22:59:47.787Z,1.60
2018-12-17T23:02:45.343Z,2.13
2018-12-17T23:05:43.973Z,1.73
2018-12-17T23:08:42.473Z,1.70
2018-12-17T23:11:48.073Z,2.40
2018-12-17T23:14:52.927Z,1.80
2018-12-17T23:17:55.753Z,1.43
2018-12-17T23:20:53.495Z,2.07
2018-12-17T23:23:50.902Z,2.07
2018-12-17T23:26:49.035Z,2.03
2018-12-17T23:29:49.103Z,2.23
2018-12-17T23:32:49.721Z,1.83
2018-12-17T23:35:48.945Z,2.60
2018-12-17T23:38:47.645Z,3.70
2018-12-17T23:41:44.790Z,2.90
2018-12-17T23:44:42.349Z,3.07
2018-12-17T23:47:40.331Z,2.30
2018-12-17T23:50:39.009Z,2.37
2018-12-17T23:53:36.034Z,2.93
2018-12-17T23:56:32.903Z,2.70
2018-12-17T23:59:30.283Z,2.50
